createdAt,value
2022-12-09T00:01:30.988Z,1.25
2022-12-09T00:03:58.957Z,1.33
2022-12-09T00:06:29.399Z,1.39
2022-12-09T00:08:58.064Z,1.31
2022-12-09T00:11:26.223Z,1.42
2022-12-09T00:13:57.823Z,1.47
2022-12-09T00:16:26.708Z,1.49
2022-12-09T00:18:54.786Z,1.36
2022-12-09T00:21:32.368Z,1.51
2022-12-09T00:24:07.084Z,1.53
2022-12-09T00:26:34.905Z,1.55
2022-12-09T00:29:02.782Z,1.54
2022-12-09T00:31:35.071Z,1.49
2022-12-09T00:34:11.003Z,1.62
2022-12-09T00:36:40.070Z,1.51
2022-12-09T00:39:07.762Z,1.55
2022-12-09T00:41:35.954Z,1.48
2022-12-09T00:44:04.229Z,1.59
2022-12-09T00:46:32.364Z,1.61
2022-12-09T00:49:00.160Z,1.61
2022-12-09T00:51:27.924Z,1.61
2022-12-09T00:53:56.397Z,1.67
2022-12-09T00:56:30.106Z,1.69
2022-12-09T00:58:59.369Z,1.59
2022-12-09T01:01:28.373Z,1.70
2022-12-09T01:03:57.050Z,1.68
2022-12-09T01:06:26.780Z,1.58
2022-12-09T01:08:55.144Z,1.59
2022-12-09T01:11:27.279Z,1.44
2022-12-09T01:13:57.717Z,1.51
2022-12-09T01:16:28.702Z,1.43
2022-12-09T01:19:00.597Z,1.52
2022-12-09T01:21:29.955Z,1.52
2022-12-09T01:23:57.696Z,1.53
2022-12-09T01:26:26.447Z,1.53
2022-12-09T01:28:57.035Z,1.52
2022-12-09T01:31:25.950Z,1.52
2022-12-09T01:33:56.416Z,1.44
2022-12-09T01:36:28.491Z,1.30
2022-12-09T01:38:58.893Z,1.41
2022-12-09T01:41:28.643Z,1.38
2022-12-09T01:44:30.292Z,1.37
2022-12-09T01:47:01.323Z,1.44
2022-12-09T01:49:46.604Z,1.40
2022-12-09T01:52:21.515Z,1.45
2022-12-09T01:54:52.268Z,1.49
2022-12-09T01:57:21.008Z,1.48
2022-12-09T01:59:49.900Z,1.45
2022-12-09T02:02:19.677Z,1.49
2022-12-09T02:04:50.148Z,1.51
2022-12-09T02:07:20.041Z,1.46
2022-12-09T02:09:53.494Z,1.58
2022-12-09T02:12:53.942Z,1.56
2022-12-09T02:15:28.352Z,1.48
2022-12-09T02:18:02.495Z,1.31
2022-12-09T02:20:38.880Z,1.40
2022-12-09T02:23:25.213Z,1.32
2022-12-09T02:26:20.055Z,1.31
2022-12-09T02:30:00.279Z,1.35
2022-12-09T02:32:46.166Z,1.25
2022-12-09T02:35:54.984Z,1.22
2022-12-09T02:38:29.213Z,1.06
2022-12-09T02:41:07.591Z,1.14
2022-12-09T02:43:49.700Z,1.17
2022-12-09T02:46:22.598Z,1.26
2022-12-09T02:48:59.349Z,1.27
2022-12-09T02:51:31.670Z,1.45
2022-12-09T02:54:13.044Z,1.44
2022-12-09T02:56:47.448Z,1.57
2022-12-09T02:59:15.331Z,1.58
2022-12-09T03:02:15.046Z,1.48
2022-12-09T03:04:49.738Z,1.53
2022-12-09T03:07:48.166Z,1.56
2022-12-09T03:10:28.446Z,1.56
2022-12-09T03:13:35.133Z,1.56
2022-12-09T03:16:37.028Z,1.57
2022-12-09T03:19:15.311Z,1.51
2022-12-09T03:21:47.329Z,1.35
2022-12-09T03:24:24.868Z,1.40
2022-12-09T03:26:54.425Z,1.23
2022-12-09T03:29:27.533Z,1.23
2022-12-09T03:31:57.152Z,1.23
2022-12-09T03:34:31.728Z,1.21
2022-12-09T03:37:02.608Z,1.23
2022-12-09T03:39:36.435Z,1.17
2022-12-09T03:42:16.671Z,0.99
2022-12-09T03:44:52.926Z,1.03
2022-12-09T03:47:21.849Z,1.09
2022-12-09T03:49:50.008Z,1.08
2022-12-09T03:52:24.710Z,1.19
2022-12-09T03:55:03.612Z,1.23
2022-12-09T03:57:36.352Z,1.25
2022-12-09T04:00:06.654Z,1.21
2022-12-09T04:02:40.516Z,1.31
2022-12-09T04:05:09.387Z,1.27
2022-12-09T04:10:41.583Z,1.36
2022-12-09T04:13:46.903Z,1.24
2022-12-09T04:18:16.922Z,1.36
2022-12-09T04:31:54.120Z,1.02
2022-12-09T04:34:22.052Z,1.13
2022-12-09T04:36:50.069Z,1.07
2022-12-09T04:39:19.598Z,1.05
2022-12-09T04:41:47.664Z,1.08
2022-12-09T04:44:15.366Z,1.04
2022-12-09T04:46:43.197Z,1.06
2022-12-09T04:49:10.913Z,0.92
2022-12-09T04:51:40.232Z,1.04
2022-12-09T04:54:14.156Z,1.05
2022-12-09T04:56:43.110Z,0.97
2022-12-09T04:59:11.086Z,1.03
2022-12-09T05:01:39.267Z,1.06
2022-12-09T05:04:07.390Z,1.01
2022-12-09T05:06:35.915Z,0.91
2022-12-09T05:09:04.435Z,0.80
2022-12-09T05:11:32.367Z,0.79
2022-12-09T05:14:00.553Z,0.79
2022-12-09T05:16:28.797Z,0.86
2022-12-09T05:18:59.342Z,0.83
2022-12-09T05:21:27.677Z,0.74
2022-12-09T05:23:55.890Z,0.77
2022-12-09T05:26:24.336Z,0.79
2022-12-09T05:28:52.469Z,0.80
2022-12-09T05:31:23.090Z,0.86
2022-12-09T05:33:52.453Z,0.83
2022-12-09T05:36:27.849Z,0.91
2022-12-09T05:38:56.590Z,0.93
2022-12-09T05:41:25.173Z,0.91
2022-12-09T05:43:53.568Z,0.89
2022-12-09T05:46:22.539Z,0.87
2022-12-09T05:48:50.897Z,0.86
2022-12-09T05:51:24.640Z,0.83
2022-12-09T05:53:53.895Z,0.82
2022-12-09T05:56:24.355Z,0.74
2022-12-09T05:58:53.988Z,0.78
2022-12-09T06:01:23.055Z,0.68
2022-12-09T06:03:53.360Z,0.83
2022-12-09T06:06:26.728Z,0.86
2022-12-09T06:08:59.538Z,0.77
2022-12-09T06:11:28.841Z,0.87
2022-12-09T06:13:57.572Z,0.78
2022-12-09T06:16:26.081Z,0.64
2022-12-09T06:18:54.332Z,0.77
2022-12-09T06:21:22.772Z,0.79
2022-12-09T06:23:51.523Z,0.80
2022-12-09T06:26:26.959Z,0.80
2022-12-09T06:28:56.274Z,0.80
2022-12-09T06:31:24.921Z,0.78
2022-12-09T06:33:56.027Z,0.67
2022-12-09T06:36:27.845Z,0.58
2022-12-09T06:38:57.032Z,0.53
2022-12-09T06:41:26.117Z,0.48
2022-12-09T06:43:53.969Z,0.50
2022-12-09T06:46:24.917Z,0.54
2022-12-09T06:48:55.210Z,0.52
2022-12-09T06:51:25.336Z,0.63
2022-12-09T06:53:54.386Z,0.65
2022-12-09T06:56:23.459Z,0.68
2022-12-09T06:58:52.056Z,0.65
2022-12-09T07:01:23.790Z,0.56
2022-12-09T07:03:55.692Z,0.43
2022-12-09T07:06:43.462Z,0.38
2022-12-09T07:09:16.656Z,0.38
2022-12-09T07:11:48.395Z,0.38
2022-12-09T07:14:18.630Z,0.47
2022-12-09T07:16:47.849Z,0.34
2022-12-09T07:19:19.941Z,0.27
2022-12-09T07:21:49.480Z,0.39
2022-12-09T07:24:19.223Z,0.40
2022-12-09T07:26:47.875Z,0.44
2022-12-09T07:29:16.021Z,0.51
2022-12-09T07:31:45.313Z,0.51
2022-12-09T07:34:13.590Z,0.54
2022-12-09T07:36:41.996Z,0.52
2022-12-09T07:39:16.557Z,0.56
2022-12-09T07:41:45.364Z,0.54
2022-12-09T07:44:13.523Z,0.50
2022-12-09T07:46:41.940Z,0.50
2022-12-09T07:49:11.760Z,0.32
2022-12-09T07:51:39.620Z,0.31
2022-12-09T07:54:07.482Z,0.29
2022-12-09T07:56:35.200Z,0.25
2022-12-09T07:59:08.432Z,0.12
2022-12-09T08:01:37.172Z,0.24
2022-12-09T08:04:06.699Z,0.22
2022-12-09T08:06:36.876Z,0.27
2022-12-09T08:09:08.658Z,0.16
2022-12-09T08:11:37.542Z,0.16
2022-12-09T08:14:12.314Z,0.11
2022-12-09T08:16:43.234Z,0.19
2022-12-09T08:19:12.556Z,0.31
2022-12-09T08:21:41.871Z,0.30
2022-12-09T08:24:12.012Z,0.16
2022-12-09T08:26:41.413Z,0.30
2022-12-09T08:29:12.013Z,0.30
2022-12-09T08:31:43.160Z,0.40
2022-12-09T08:34:12.378Z,0.40
2022-12-09T08:36:41.100Z,0.55
2022-12-09T08:39:10.286Z,0.53
2022-12-09T08:41:39.872Z,0.69
2022-12-09T08:44:20.429Z,0.75
2022-12-09T08:46:52.026Z,0.75
2022-12-09T08:49:22.354Z,0.82
2022-12-09T08:51:53.643Z,0.87
2022-12-09T08:54:22.420Z,0.92
2022-12-09T08:56:57.768Z,0.89
2022-12-09T08:59:26.188Z,1.10
2022-12-09T09:01:54.498Z,1.12
2022-12-09T09:04:22.955Z,1.07
2022-12-09T09:06:51.998Z,1.30
2022-12-09T09:09:22.422Z,1.25
2022-12-09T09:11:50.985Z,1.17
2022-12-09T09:14:19.263Z,1.37
2022-12-09T09:16:47.404Z,1.44
2022-12-09T09:19:20.572Z,1.41
2022-12-09T09:21:49.772Z,1.55
2022-12-09T09:24:22.169Z,1.56
2022-12-09T09:26:52.484Z,1.67
2022-12-09T09:29:23.631Z,1.72
2022-12-09T09:31:54.446Z,1.70
2022-12-09T09:34:25.075Z,1.79
2022-12-09T09:36:54.071Z,1.81
2022-12-09T09:39:22.393Z,1.77
2022-12-09T09:42:09.040Z,1.64
2022-12-09T09:44:49.305Z,1.81
2022-12-09T09:47:38.549Z,1.65
2022-12-09T09:50:26.337Z,1.74
2022-12-09T09:52:56.037Z,1.71
2022-12-09T09:55:44.853Z,1.80
2022-12-09T09:58:39.010Z,1.81
2022-12-09T10:01:12.222Z,1.82
2022-12-09T10:04:15.250Z,1.93
2022-12-09T10:06:54.352Z,1.93
2022-12-09T10:10:06.912Z,1.97
2022-12-09T10:13:08.106Z,2.04
2022-12-09T10:15:53.823Z,2.11
2022-12-09T10:19:10.563Z,2.17
2022-12-09T10:21:45.379Z,2.23
2022-12-09T10:24:29.070Z,2.32
2022-12-09T10:27:36.608Z,2.34
2022-12-09T10:30:08.987Z,2.38
2022-12-09T10:32:39.187Z,2.28
2022-12-09T10:35:22.661Z,2.39
2022-12-09T10:37:53.053Z,2.39
2022-12-09T10:40:30.971Z,2.49
2022-12-09T10:43:19.232Z,2.58
2022-12-09T10:48:47.581Z,2.87
2022-12-09T10:51:35.631Z,2.97
2022-12-09T10:54:15.414Z,3.04
2022-12-09T10:57:12.655Z,2.99
2022-12-09T10:59:43.718Z,3.05
2022-12-09T11:02:21.894Z,3.00
2022-12-09T11:04:53.551Z,2.85
2022-12-09T11:07:26.364Z,2.67
2022-12-09T11:10:22.166Z,2.59
2022-12-09T11:13:15.979Z,2.84
2022-12-09T11:15:52.014Z,2.57
2022-12-09T11:18:31.260Z,2.74
2022-12-09T11:21:07.975Z,2.55
2022-12-09T11:24:02.567Z,2.81
2022-12-09T11:26:43.299Z,2.22
2022-12-09T11:29:19.492Z,2.20
2022-12-09T11:31:48.246Z,2.32
2022-12-09T11:34:28.210Z,2.50
2022-12-09T11:37:02.337Z,2.63
2022-12-09T11:39:35.440Z,2.38
2022-12-09T11:42:18.610Z,2.65
2022-12-09T11:45:26.278Z,2.47
2022-12-09T11:48:34.030Z,2.70
2022-12-09T11:51:22.965Z,2.53
2022-12-09T11:54:03.295Z,2.73
2022-12-09T11:56:44.522Z,2.80
2022-12-09T11:59:26.773Z,2.89
2022-12-09T12:02:26.697Z,3.24
2022-12-09T12:05:18.257Z,3.41
2022-12-09T12:08:46.701Z,2.77
2022-12-09T12:11:41.237Z,3.00
2022-12-09T12:14:27.558Z,2.86
2022-12-09T12:17:46.740Z,2.84
2022-12-09T12:20:19.240Z,2.43
2022-12-09T12:23:14.295Z,2.70
2022-12-09T12:26:08.893Z,2.44
2022-12-09T12:29:07.576Z,2.58
2022-12-09T12:32:15.641Z,2.72
2022-12-09T12:35:16.718Z,2.75
2022-12-09T12:37:55.864Z,2.70
2022-12-09T12:40:55.374Z,2.69
2022-12-09T12:44:40.746Z,2.73
2022-12-09T12:47:40.646Z,2.81
2022-12-09T12:50:27.173Z,2.86
2022-12-09T12:53:06.577Z,2.87
2022-12-09T12:55:50.860Z,2.88
2022-12-09T12:58:51.682Z,2.92
2022-12-09T13:01:19.358Z,2.87
2022-12-09T13:04:06.749Z,2.82
2022-12-09T13:07:00.771Z,2.68
2022-12-09T13:09:53.635Z,2.66
2022-12-09T13:12:50.418Z,2.60
2022-12-09T13:15:51.669Z,2.65
2022-12-09T13:18:28.267Z,2.52
2022-12-09T13:21:02.451Z,2.60
2022-12-09T13:24:03.454Z,2.62
2022-12-09T13:27:12.875Z,2.67
2022-12-09T13:30:05.685Z,2.69
2022-12-09T13:32:55.441Z,2.73
2022-12-09T13:35:45.839Z,2.75
2022-12-09T13:38:43.519Z,2.56
2022-12-09T13:41:26.554Z,2.59
2022-12-09T13:44:06.934Z,2.76
2022-12-09T13:46:35.294Z,2.74
2022-12-09T13:49:16.790Z,2.72
2022-12-09T13:51:51.929Z,2.76
2022-12-09T13:54:26.196Z,2.77
2022-12-09T13:57:11.496Z,2.65
2022-12-09T13:59:59.059Z,2.65
2022-12-09T14:02:43.373Z,2.66
2022-12-09T14:05:16.007Z,2.68
2022-12-09T14:08:00.426Z,2.65
2022-12-09T14:10:47.801Z,2.62
2022-12-09T14:13:35.530Z,2.69
2022-12-09T14:16:38.587Z,2.60
2022-12-09T14:19:24.657Z,2.61
2022-12-09T14:22:18.589Z,2.60
2022-12-09T14:24:57.197Z,2.61
2022-12-09T14:27:30.979Z,2.56
2022-12-09T14:30:24.671Z,2.58
2022-12-09T14:32:57.134Z,2.38
2022-12-09T14:35:43.029Z,2.52
2022-12-09T14:39:07.998Z,2.49
2022-12-09T14:42:00.740Z,2.42
2022-12-09T14:44:48.730Z,2.24
2022-12-09T14:47:23.683Z,1.96
2022-12-09T14:49:56.501Z,2.06
2022-12-09T14:52:32.044Z,2.00
2022-12-09T14:55:02.548Z,2.07
2022-12-09T14:57:42.426Z,2.14
2022-12-09T15:00:43.608Z,2.19
2022-12-09T15:03:35.683Z,2.28
2022-12-09T15:06:17.690Z,2.15
2022-12-09T15:08:46.129Z,2.25
2022-12-09T15:11:27.805Z,2.26
2022-12-09T15:14:17.768Z,2.19
2022-12-09T15:16:49.294Z,2.24
2022-12-09T15:19:58.024Z,2.27
2022-12-09T15:22:31.642Z,2.28
2022-12-09T15:25:02.417Z,2.21
2022-12-09T15:27:31.611Z,2.29
2022-12-09T15:29:59.360Z,2.23
2022-12-09T15:32:30.469Z,2.19
2022-12-09T15:35:23.630Z,2.23
2022-12-09T15:37:55.252Z,2.18
2022-12-09T15:40:29.069Z,2.17
2022-12-09T15:43:04.316Z,2.15
2022-12-09T15:45:39.016Z,2.11
2022-12-09T15:48:21.487Z,2.01
2022-12-09T15:50:59.117Z,2.07
2022-12-09T15:53:38.788Z,2.05
2022-12-09T15:56:17.932Z,2.05
2022-12-09T15:58:50.249Z,1.90
2022-12-09T16:01:31.608Z,1.90
2022-12-09T16:04:01.986Z,1.92
2022-12-09T16:06:37.174Z,1.83
2022-12-09T16:09:20.243Z,1.83
2022-12-09T16:11:52.642Z,1.85
2022-12-09T16:14:22.425Z,1.85
2022-12-09T16:16:58.722Z,1.86
2022-12-09T16:19:27.880Z,1.75
2022-12-09T16:22:07.129Z,1.73
2022-12-09T16:25:13.220Z,1.65
2022-12-09T16:27:37.620Z,1.69
2022-12-09T16:30:22.817Z,1.74
2022-12-09T16:32:56.165Z,1.79
2022-12-09T16:35:35.061Z,1.74
2022-12-09T16:38:09.406Z,1.80
2022-12-09T16:40:46.142Z,1.71
2022-12-09T16:43:16.977Z,1.72
2022-12-09T16:45:53.715Z,1.75
2022-12-09T16:48:23.782Z,1.60
2022-12-09T16:51:23.270Z,1.71
2022-12-09T16:53:52.765Z,1.72
2022-12-09T16:56:27.237Z,1.67
2022-12-09T16:58:55.630Z,1.58
2022-12-09T17:01:34.838Z,1.71
2022-12-09T17:04:29.764Z,1.67
2022-12-09T17:06:57.486Z,1.63
2022-12-09T17:09:25.323Z,1.63
2022-12-09T17:11:53.017Z,1.60
2022-12-09T17:14:20.672Z,1.61
2022-12-09T17:16:48.441Z,1.54
2022-12-09T17:19:16.041Z,1.58
2022-12-09T17:21:43.902Z,1.57
2022-12-09T17:24:12.223Z,1.56
2022-12-09T17:26:40.084Z,1.54
2022-12-09T17:29:07.786Z,1.50
2022-12-09T17:31:35.421Z,1.52
2022-12-09T17:34:03.218Z,1.40
2022-12-09T17:36:31.757Z,1.47
2022-12-09T17:39:06.115Z,1.46
2022-12-09T17:41:33.905Z,1.36
2022-12-09T17:44:01.692Z,1.46
2022-12-09T17:46:29.557Z,1.42
2022-12-09T17:48:59.649Z,1.42
2022-12-09T17:51:32.439Z,1.41
2022-12-09T17:54:05.390Z,1.29
2022-12-09T17:56:33.518Z,1.04
2022-12-09T17:59:12.596Z,1.17
2022-12-09T18:01:41.252Z,1.02
2022-12-09T18:04:10.557Z,1.06
2022-12-09T18:06:43.235Z,1.09
2022-12-09T18:09:15.056Z,1.02
2022-12-09T18:11:43.857Z,1.01
2022-12-09T18:14:12.183Z,0.95
2022-12-09T18:16:39.959Z,1.01
2022-12-09T18:19:16.245Z,0.99
2022-12-09T18:21:45.370Z,0.91
2022-12-09T18:24:13.401Z,0.91
2022-12-09T18:26:42.359Z,1.03
2022-12-09T18:29:11.953Z,1.01
2022-12-09T18:31:40.959Z,1.02
2022-12-09T18:34:08.781Z,0.99
2022-12-09T18:36:37.330Z,0.98
2022-12-09T18:39:05.730Z,1.02
2022-12-09T18:41:33.904Z,0.90
2022-12-09T18:44:06.239Z,0.95
2022-12-09T18:46:38.195Z,0.94
2022-12-09T18:49:19.719Z,0.81
2022-12-09T18:51:50.815Z,0.82
2022-12-09T18:54:26.470Z,0.89
2022-12-09T18:56:56.101Z,0.82
2022-12-09T18:59:25.582Z,0.62
2022-12-09T19:01:54.069Z,0.60
2022-12-09T19:04:28.912Z,0.76
2022-12-09T19:07:00.631Z,0.69
2022-12-09T19:09:33.497Z,0.57
2022-12-09T19:14:53.834Z,0.65
2022-12-09T19:17:21.811Z,0.57
2022-12-09T19:19:49.774Z,0.65
2022-12-09T19:22:17.514Z,0.70
2022-12-09T19:24:45.342Z,0.67
2022-12-09T19:27:13.513Z,0.81
2022-12-09T19:29:41.323Z,0.83
2022-12-09T19:32:29.340Z,0.85
2022-12-09T19:34:56.759Z,0.80
2022-12-09T19:37:24.461Z,0.71
2022-12-09T19:39:52.251Z,0.66
2022-12-09T19:42:20.272Z,0.71
2022-12-09T19:45:01.261Z,0.66
2022-12-09T19:47:29.972Z,0.66
2022-12-09T19:49:57.739Z,0.71
2022-12-09T19:52:25.373Z,0.60
2022-12-09T19:54:53.199Z,0.63
2022-12-09T19:57:22.559Z,0.60
2022-12-09T19:59:50.199Z,0.65
2022-12-09T20:02:17.779Z,0.56
2022-12-09T20:04:50.386Z,0.72
2022-12-09T20:07:20.054Z,0.69
2022-12-09T20:09:48.727Z,0.73
2022-12-09T20:12:16.593Z,0.68
2022-12-09T20:14:44.838Z,0.55
2022-12-09T20:17:12.574Z,0.63
2022-12-09T20:19:40.184Z,0.61
2022-12-09T20:22:07.774Z,0.47
2022-12-09T20:24:35.807Z,0.42
2022-12-09T20:27:04.394Z,0.54
2022-12-09T20:29:37.201Z,0.58
2022-12-09T20:32:08.366Z,0.58
2022-12-09T20:34:36.426Z,0.48
2022-12-09T20:37:04.526Z,0.59
2022-12-09T20:39:32.136Z,0.60
2022-12-09T20:41:59.955Z,0.59
2022-12-09T20:44:27.590Z,0.55
2022-12-09T20:46:55.204Z,0.53
2022-12-09T20:49:26.620Z,0.55
2022-12-09T20:51:55.156Z,0.67
2022-12-09T20:54:23.464Z,0.63
2022-12-09T20:56:54.076Z,0.62
2022-12-09T20:59:22.650Z,0.59
2022-12-09T21:01:50.389Z,0.64
2022-12-09T21:04:18.818Z,0.51
2022-12-09T21:06:46.429Z,0.71
2022-12-09T21:09:20.040Z,0.73
2022-12-09T21:11:49.573Z,0.79
2022-12-09T21:14:18.715Z,0.78
2022-12-09T21:16:50.306Z,0.81
2022-12-09T21:19:25.878Z,0.86
2022-12-09T21:21:54.440Z,0.72
2022-12-09T21:24:24.204Z,0.87
2022-12-09T21:26:53.765Z,0.71
2022-12-09T21:29:26.918Z,0.77
2022-12-09T21:31:58.004Z,0.73
2022-12-09T21:34:25.918Z,0.63
2022-12-09T21:36:53.603Z,0.64
2022-12-09T21:39:21.272Z,0.33
2022-12-09T21:41:48.972Z,0.48
2022-12-09T21:44:19.083Z,0.45
2022-12-09T21:46:48.096Z,0.22
2022-12-09T21:49:16.074Z,0.43
2022-12-09T21:51:43.994Z,0.43
2022-12-09T21:54:12.112Z,0.28
2022-12-09T21:56:39.780Z,0.42
2022-12-09T21:59:08.267Z,0.32
2022-12-09T22:01:40.630Z,0.31
2022-12-09T22:04:12.419Z,0.16
2022-12-09T22:06:40.270Z,0.31
2022-12-09T22:09:08.972Z,0.27
2022-12-09T22:11:38.807Z,0.19
2022-12-09T22:14:08.976Z,0.26
2022-12-09T22:16:41.279Z,0.25
2022-12-09T22:19:15.206Z,0.06
2022-12-09T22:21:43.074Z,0.15
2022-12-09T22:24:13.329Z,0.07
2022-12-09T22:26:43.676Z,0.15
2022-12-09T22:29:16.230Z,-0.08
2022-12-09T22:31:45.371Z,-0.04
2022-12-09T22:34:17.692Z,0.02
2022-12-09T22:36:47.618Z,-0.06
2022-12-09T22:39:19.226Z,0.16
2022-12-09T22:41:46.963Z,0.12
2022-12-09T22:44:18.900Z,0.07
2022-12-09T22:46:48.846Z,0.00
2022-12-09T22:49:17.694Z,0.11
2022-12-09T22:51:47.007Z,0.06
2022-12-09T22:54:15.638Z,0.08
2022-12-09T22:56:44.390Z,0.12
2022-12-09T22:59:14.063Z,0.15
2022-12-09T23:01:48.005Z,0.13
2022-12-09T23:04:21.686Z,0.17
2022-12-09T23:06:50.629Z,0.08
2022-12-09T23:09:24.359Z,0.01
2022-12-09T23:11:53.542Z,0.01
2022-12-09T23:14:21.421Z,-0.04
2022-12-09T23:16:49.444Z,-0.05
2022-12-09T23:19:17.123Z,-0.01
2022-12-09T23:21:44.895Z,-0.05
2022-12-09T23:24:19.730Z,-0.01
2022-12-09T23:26:50.496Z,-0.07
2022-12-09T23:29:18.190Z,-0.07
2022-12-09T23:31:46.304Z,0.01
2022-12-09T23:34:15.328Z,-0.02
2022-12-09T23:36:44.684Z,0.04
2022-12-09T23:39:17.844Z,0.03
2022-12-09T23:41:46.484Z,0.05
2022-12-09T23:44:18.650Z,0.08
2022-12-09T23:46:47.523Z,-0.03
2022-12-09T23:49:15.769Z,0.11
2022-12-09T23:51:44.046Z,-0.01
2022-12-09T23:54:14.632Z,0.03
2022-12-09T23:56:52.682Z,0.13
2022-12-09T23:59:22.874Z,0.05
